Time;durP1;ratioP1;P1;durP2;ratioP2;P2;SDS_P1;SDS_P2;PMS_P1;PMS_P2;Temp;Humidity;BMP_temperature;BMP_pressure;BME280_temperature;BME280_humidity;BME280_pressure;Samples;Min_cycle;Max_cycle;Signal;HPM_P1;HPM_P2
2022/07/02 00:02:11;;;;;;;9.80;2.28;;;;;;;15.39;78.52;102053.28;4975717;28;20030;-43
2022/07/02 00:04:43;;;;;;;12.65;2.60;;;;;;;15.18;79.01;102035.91;4975174;28;20102;-41
2022/07/02 00:07:09;;;;;;;13.80;2.50;;;;;;;15.16;79.37;102039.69;4975535;28;20041;-43
2022/07/02 00:09:36;;;;;;;8.40;2.35;;;;;;;15.07;79.75;102042.41;4975269;28;20347;-43
2022/07/02 00:12:01;;;;;;;8.80;2.28;;;;;;;14.99;80.11;102046.91;4975007;28;20029;-42
2022/07/02 00:14:27;;;;;;;5.60;2.03;;;;;;;14.93;80.35;102051.06;4974816;28;20023;-41
2022/07/02 00:16:54;;;;;;;8.60;2.25;;;;;;;14.87;81.11;102049.19;4975174;28;20023;-42
2022/07/02 00:19:21;;;;;;;10.95;2.35;;;;;;;14.81;81.06;102053.34;4974840;28;20105;-42
2022/07/02 00:21:47;;;;;;;10.68;2.65;;;;;;;14.84;81.07;102057.38;4974780;28;20023;-42
2022/07/02 00:24:13;;;;;;;9.35;2.60;;;;;;;14.82;81.70;102057.56;4974679;28;20109;-42
2022/07/02 00:26:40;;;;;;;8.93;2.70;;;;;;;14.74;81.21;102059.47;4975527;28;20031;-42
2022/07/02 00:29:33;;;;;;;7.22;2.40;;;;;;;14.70;81.91;102064.22;4974899;28;20093;-42
2022/07/02 00:31:59;;;;;;;10.93;2.50;;;;;;;14.60;82.38;102064.53;4974760;28;20109;-41
2022/07/02 00:34:25;;;;;;;12.75;2.65;;;;;;;14.49;82.82;102067.56;4974132;28;20030;-41
2022/07/02 00:36:50;;;;;;;12.55;2.63;;;;;;;14.40;83.29;102063.44;4974599;28;20493;-42
2022/07/02 00:39:16;;;;;;;7.18;2.63;;;;;;;14.35;83.75;102068.38;4974567;28;20030;-41
2022/07/02 00:41:43;;;;;;;13.57;2.63;;;;;;;14.31;84.22;102061.94;4974662;28;20057;-42
2022/07/02 00:44:09;;;;;;;8.57;2.35;;;;;;;14.22;84.67;102061.22;4974671;28;20056;-42
2022/07/02 00:46:36;;;;;;;9.00;2.30;;;;;;;14.17;84.91;102061.75;4975056;28;20030;-42
2022/07/02 00:49:02;;;;;;;8.50;2.90;;;;;;;14.17;85.12;102056.53;4974832;28;20077;-41
2022/07/02 00:51:27;;;;;;;9.60;2.35;;;;;;;14.25;85.39;102052.25;4974705;28;20529;-43
2022/07/02 00:53:53;;;;;;;7.93;2.53;;;;;;;14.33;84.80;102049.56;4974688;28;20105;-42
2022/07/02 00:56:19;;;;;;;11.07;2.65;;;;;;;14.21;84.73;102041.38;4975053;28;20418;-41
2022/07/02 00:58:45;;;;;;;11.30;2.70;;;;;;;14.10;85.22;102050.47;4974434;28;20097;-42
2022/07/02 01:01:10;;;;;;;8.40;2.70;;;;;;;14.05;85.90;102047.59;4974415;28;20077;-42
2022/07/02 01:03:37;;;;;;;11.75;2.63;;;;;;;13.94;86.24;102048.03;4974688;28;20027;-41
2022/07/02 01:06:03;;;;;;;12.20;3.15;;;;;;;14.02;86.17;102047.16;4974439;28;20058;-41
2022/07/02 01:11:17;;;;;;;9.00;2.67;;;;;;;13.87;87.57;102036.75;4975049;28;20573;-43
2022/07/02 01:13:42;;;;;;;10.02;2.55;;;;;;;13.88;87.85;102031.34;4974494;28;20397;-42
2022/07/02 01:16:07;;;;;;;9.68;2.92;;;;;;;13.82;88.27;102032.06;4974652;28;20030;-43
2022/07/02 01:18:34;;;;;;;12.93;3.15;;;;;;;13.73;88.63;102030.53;4974355;28;20023;-41
2022/07/02 01:20:59;;;;;;;11.30;3.13;;;;;;;13.71;89.67;102032.50;4972982;28;20031;-40
2022/07/02 01:23:25;;;;;;;11.80;3.28;;;;;;;13.70;89.90;102031.69;4972890;28;20049;-41
2022/07/02 01:25:51;;;;;;;7.90;3.20;;;;;;;13.73;89.37;102038.34;4972936;28;20023;-42
2022/07/02 01:28:17;;;;;;;13.85;3.40;;;;;;;13.71;90.21;102032.50;4974284;28;20557;-42
2022/07/02 01:30:43;;;;;;;12.70;3.38;;;;;;;13.65;90.28;102031.41;4974487;28;20101;-42
2022/07/02 01:33:09;;;;;;;9.35;3.65;;;;;;;13.64;90.83;102036.81;4974889;28;20062;-43
2022/07/02 01:35:34;;;;;;;9.93;3.33;;;;;;;13.64;90.84;102037.59;4974046;28;20058;-42
2022/07/02 01:37:59;;;;;;;10.38;3.50;;;;;;;13.64;90.79;102040.19;4974451;28;20493;-43
2022/07/02 01:40:25;;;;;;;15.68;3.83;;;;;;;13.37;91.66;102018.19;4973427;28;20102;-42
2022/07/02 01:42:50;;;;;;;10.57;3.65;;;;;;;13.42;92.33;102034.03;4974321;28;20061;-41
2022/07/02 01:45:16;;;;;;;16.05;3.92;;;;;;;13.61;91.90;102042.31;4974201;28;20015;-42
2022/07/02 01:47:41;;;;;;;9.15;3.65;;;;;;;13.53;91.80;102035.44;4976413;28;20470;-42
2022/07/02 01:50:08;;;;;;;7.88;3.85;;;;;;;13.51;91.84;102037.38;4977625;28;20029;-42
2022/07/02 01:52:33;;;;;;;9.43;4.10;;;;;;;13.58;91.45;102037.47;4977472;28;20077;-43
2022/07/02 01:54:59;;;;;;;11.65;4.03;;;;;;;13.62;91.54;102039.56;4977429;28;20470;-42
2022/07/02 01:57:24;;;;;;;9.15;4.22;;;;;;;13.54;92.17;102042.22;4977369;28;20105;-42
2022/07/02 01:59:49;;;;;;;14.70;4.45;;;;;;;13.53;92.11;102044.03;4977885;28;20037;-42
2022/07/02 02:02:15;;;;;;;14.63;5.13;;;;;;;13.50;92.69;102040.97;4977707;28;20050;-42
2022/07/02 02:04:40;;;;;;;8.73;3.95;;;;;;;13.51;92.06;102038.19;4977673;28;20061;-43
2022/07/02 02:07:06;;;;;;;10.90;4.00;;;;;;;13.56;91.24;102039.47;4976364;28;20578;-43
2022/07/02 02:09:31;;;;;;;9.90;4.15;;;;;;;13.60;91.81;102033.72;4976754;28;20054;-42
2022/07/02 02:11:58;;;;;;;9.95;4.45;;;;;;;13.62;91.13;102028.38;4977505;28;20034;-41
2022/07/02 02:14:23;;;;;;;10.27;4.40;;;;;;;13.57;91.07;102035.88;4977058;28;20098;-43
2022/07/02 02:16:49;;;;;;;9.07;4.07;;;;;;;13.64;90.73;102035.00;4977361;28;20050;-40
2022/07/02 02:19:14;;;;;;;10.93;4.47;;;;;;;13.65;90.38;102035.81;4976902;28;20114;-40
2022/07/02 02:21:39;;;;;;;9.10;4.22;;;;;;;13.61;90.07;102039.72;4977236;28;20026;-42
2022/07/02 02:24:05;;;;;;;8.63;3.90;;;;;;;13.42;90.88;102044.44;4976787;28;20039;-42
2022/07/02 02:26:30;;;;;;;8.73;4.20;;;;;;;13.42;91.21;102039.25;4975631;28;20130;-43
2022/07/02 02:28:56;;;;;;;9.48;4.28;;;;;;;13.45;90.89;102040.69;4976883;28;20030;-43
2022/07/02 02:31:22;;;;;;;8.90;4.50;;;;;;;13.52;90.60;102041.59;4977003;28;20031;-41
2022/07/02 02:33:47;;;;;;;8.80;4.22;;;;;;;13.56;90.61;102034.28;4977283;28;20062;-42
2022/07/02 02:36:13;;;;;;;10.48;3.90;;;;;;;13.61;89.73;102037.97;4976658;28;20130;-42
2022/07/02 02:38:38;;;;;;;9.75;3.80;;;;;;;13.59;89.28;102036.50;4976695;28;20042;-42
2022/07/02 02:41:08;;;;;;;7.95;3.65;;;;;;;13.57;88.46;102035.88;4975263;28;20054;-41
2022/07/02 02:43:37;;;;;;;10.55;3.90;;;;;;;13.53;88.46;102031.03;4975347;28;20054;-42
2022/07/02 02:46:04;;;;;;;11.65;3.70;;;;;;;13.53;88.54;102027.63;4977005;28;20034;-42
2022/07/02 02:48:29;;;;;;;7.10;3.63;;;;;;;13.45;88.65;102044.09;4976779;28;20374;-41
2022/07/02 02:50:56;;;;;;;8.52;3.42;;;;;;;13.40;88.50;102040.38;4975108;28;20023;-43
2022/07/02 02:53:21;;;;;;;6.95;3.58;;;;;;;13.41;88.38;102047.22;4976603;28;20406;-42
2022/07/02 02:55:47;;;;;;;14.82;3.50;;;;;;;13.42;88.09;102043.63;4976267;28;20038;-42
2022/07/02 02:58:12;;;;;;;8.88;3.50;;;;;;;13.32;88.27;102047.28;4975745;28;20026;-42
2022/07/02 03:00:37;;;;;;;11.02;4.00;;;;;;;13.29;88.74;102050.22;4976241;28;20042;-42
2022/07/02 03:03:03;;;;;;;12.82;3.63;;;;;;;13.29;88.75;102044.19;4976035;28;20046;-41
2022/07/02 03:05:28;;;;;;;6.90;3.33;;;;;;;13.21;88.80;102047.66;4976639;28;20030;-41
2022/07/02 03:07:53;;;;;;;8.23;3.88;;;;;;;13.17;89.31;102048.16;4976113;28;20026;-42
2022/07/02 03:10:19;;;;;;;6.82;3.47;;;;;;;13.24;88.80;102046.50;4976357;28;20027;-42
2022/07/02 03:12:44;;;;;;;10.45;3.78;;;;;;;13.25;88.38;102042.91;4976281;28;20029;-42
2022/07/02 03:15:10;;;;;;;5.90;3.03;;;;;;;13.24;88.52;102044.72;4974532;28;20101;-41
2022/07/02 03:17:35;;;;;;;8.60;3.40;;;;;;;13.33;87.75;102048.09;4975949;28;20026;-42
2022/07/02 03:20:01;;;;;;;6.55;3.33;;;;;;;13.26;87.40;102047.16;4976046;28;20023;-41
2022/07/02 03:22:26;;;;;;;7.65;3.28;;;;;;;13.25;87.00;102059.31;4975697;28;20494;-42
2022/07/02 03:24:51;;;;;;;7.65;3.00;;;;;;;13.21;87.38;102057.22;4975722;28;20042;-41
2022/07/02 03:27:17;;;;;;;7.13;3.10;;;;;;;13.15;87.05;102055.31;4976065;28;20023;-41
2022/07/02 03:29:42;;;;;;;12.60;3.25;;;;;;;13.30;86.44;102071.78;4975908;28;20023;-42
2022/07/02 03:32:08;;;;;;;8.05;2.90;;;;;;;13.31;86.50;102057.81;4975940;28;20030;-43
2022/07/02 03:34:33;;;;;;;7.70;2.95;;;;;;;13.28;86.11;102061.56;4975808;28;20022;-42
2022/07/02 03:36:58;;;;;;;8.07;2.75;;;;;;;13.35;85.35;102066.06;4975744;28;20023;-41
2022/07/02 03:39:24;;;;;;;7.65;2.70;;;;;;;13.45;85.60;102067.44;4975516;28;20054;-42
2022/07/02 03:41:49;;;;;;;5.70;2.60;;;;;;;13.45;84.98;102064.06;4974124;28;20031;-42
2022/07/02 03:44:14;;;;;;;7.20;2.45;;;;;;;13.52;84.18;102073.56;4975474;28;20022;-41
2022/07/02 03:46:40;;;;;;;5.65;2.50;;;;;;;13.51;83.91;102074.53;4975586;28;20059;-44
2022/07/02 03:49:05;;;;;;;7.57;2.38;;;;;;;13.52;83.67;102068.38;4975223;28;20026;-42
2022/07/02 03:51:30;;;;;;;4.95;2.20;;;;;;;13.48;83.77;102071.50;4975825;28;20038;-46
2022/07/02 03:53:56;;;;;;;7.28;2.40;;;;;;;13.44;83.56;102062.44;4975260;28;20053;-41
2022/07/02 03:56:21;;;;;;;9.10;2.58;;;;;;;13.47;83.35;102068.09;4975476;28;20106;-44
2022/07/02 03:58:46;;;;;;;6.95;2.30;;;;;;;13.65;83.64;102064.38;4975189;28;20027;-42
2022/07/02 04:01:12;;;;;;;6.15;2.28;;;;;;;13.61;83.04;102061.34;4975101;28;20102;-42
2022/07/02 04:03:37;;;;;;;5.18;2.25;;;;;;;13.59;82.22;102070.28;4975330;28;20070;-41
2022/07/02 04:06:03;;;;;;;6.63;2.10;;;;;;;13.64;82.83;102073.16;4975226;28;20019;-41
2022/07/02 04:08:28;;;;;;;5.70;2.00;;;;;;;13.70;82.87;102068.06;4975091;28;20038;-41
2022/07/02 04:10:54;;;;;;;5.25;2.00;;;;;;;13.65;81.93;102066.97;4974950;28;20027;-39
2022/07/02 04:13:20;;;;;;;8.40;2.28;;;;;;;13.66;81.83;102068.59;4974934;28;20034;-41
2022/07/02 04:15:45;;;;;;;6.13;2.13;;;;;;;13.70;81.81;102067.25;4973599;28;20030;-40
2022/07/02 04:18:10;;;;;;;6.20;2.08;;;;;;;13.77;81.67;102068.97;4973672;28;20046;-40
2022/07/02 04:20:36;;;;;;;4.40;2.05;;;;;;;13.81;81.39;102077.22;4975015;28;20541;-41
2022/07/02 04:23:01;;;;;;;6.55;2.25;;;;;;;13.91;81.22;102071.78;4974823;28;20402;-41
2022/07/02 04:25:28;;;;;;;7.22;1.98;;;;;;;13.72;80.89;102063.50;4975350;28;20446;-41
2022/07/02 04:27:53;;;;;;;6.57;2.20;;;;;;;13.73;81.40;102078.09;4975001;28;20030;-42
2022/07/02 04:30:19;;;;;;;5.25;2.20;;;;;;;13.84;81.00;102087.28;4974632;28;20027;-41
2022/07/02 04:32:44;;;;;;;4.88;1.92;;;;;;;13.93;80.95;102083.59;4974909;28;20381;-41
2022/07/02 04:35:09;;;;;;;5.97;1.75;;;;;;;14.00;80.61;102087.09;4975094;28;20037;-41
2022/07/02 04:37:35;;;;;;;4.60;1.95;;;;;;;14.10;79.96;102092.06;4974632;28;20581;-41
2022/07/02 04:40:00;;;;;;;4.68;1.98;;;;;;;14.09;79.91;102089.63;4974552;28;20037;-41
2022/07/02 04:42:26;;;;;;;8.50;2.40;;;;;;;14.01;79.69;102077.50;4975004;28;20029;-42
2022/07/02 04:44:51;;;;;;;4.30;1.65;;;;;;;14.13;79.67;102085.69;4974894;28;20030;-41
2022/07/02 04:47:16;;;;;;;6.20;1.95;;;;;;;14.12;79.84;102081.47;4974533;28;20023;-41
2022/07/02 04:49:42;;;;;;;5.53;2.28;;;;;;;14.08;79.89;102090.63;4974543;28;20550;-42
2022/07/02 04:52:07;;;;;;;9.57;1.95;;;;;;;14.18;79.40;102091.16;4974499;28;20029;-43
2022/07/02 04:54:32;;;;;;;6.57;1.90;;;;;;;14.32;79.11;102086.94;4974610;28;20031;-42
2022/07/02 04:56:58;;;;;;;5.65;1.80;;;;;;;14.39;78.53;102093.84;4974394;28;20066;-39
2022/07/02 04:59:23;;;;;;;8.57;2.00;;;;;;;14.42;78.76;102097.88;4974954;28;20033;-41
2022/07/02 05:01:48;;;;;;;4.75;1.90;;;;;;;14.41;78.27;102093.66;4974698;28;20486;-41
2022/07/02 05:04:14;;;;;;;5.38;1.60;;;;;;;14.53;77.79;102094.03;4974228;28;20023;-41
2022/07/02 05:06:39;;;;;;;7.90;1.85;;;;;;;14.63;77.75;102087.56;4974423;28;20139;-42
2022/07/02 05:09:04;;;;;;;8.55;1.95;;;;;;;14.76;77.38;102079.13;4974619;28;20037;-40
2022/07/02 05:11:30;;;;;;;7.22;2.00;;;;;;;14.68;77.69;102087.03;4974832;28;20037;-40
2022/07/02 05:13:56;;;;;;;5.00;1.50;;;;;;;14.66;77.80;102083.81;4974136;28;20462;-42
2022/07/02 05:16:21;;;;;;;6.18;1.75;;;;;;;14.74;77.37;102075.09;4974197;28;20054;-42
2022/07/02 05:18:48;;;;;;;2.13;1.50;;;;;;;14.73;78.12;102063.88;4974484;28;20031;-42
2022/07/02 05:21:13;;;;;;;7.20;1.52;;;;;;;14.89;77.04;102076.66;4974317;28;20469;-41
2022/07/02 05:23:39;;;;;;;8.23;2.35;;;;;;;14.98;76.46;102077.34;4976674;28;20042;-41
2022/07/02 05:26:04;;;;;;;4.28;1.90;;;;;;;15.00;76.03;102085.00;4976678;28;20026;-42
2022/07/02 05:28:30;;;;;;;6.65;1.77;;;;;;;15.13;76.37;102085.09;4976662;28;20469;-42
2022/07/02 05:30:55;;;;;;;5.43;1.85;;;;;;;15.14;75.61;102086.75;4976623;28;20492;-42
2022/07/02 05:33:21;;;;;;;4.25;1.67;;;;;;;15.29;75.13;102090.09;4978089;28;20073;-42
2022/07/02 05:35:46;;;;;;;5.53;1.70;;;;;;;15.44;74.50;102087.41;4977985;28;20491;-42
2022/07/02 05:38:12;;;;;;;6.35;1.63;;;;;;;17.33;67.78;102095.03;4977631;28;20429;-41
2022/07/02 05:40:37;;;;;;;6.72;1.73;;;;;;;20.72;56.07;102085.97;4977975;28;20029;-41
2022/07/02 05:43:03;;;;;;;5.95;1.40;;;;;;;24.25;46.99;102087.38;4976633;28;20023;-41
2022/07/02 05:45:28;;;;;;;5.22;1.38;;;;;;;27.89;37.61;102101.09;4977620;28;20042;-41
2022/07/02 05:47:54;;;;;;;7.50;1.58;;;;;;;28.45;36.18;102089.41;4977848;28;20373;-41
2022/07/02 05:50:19;;;;;;;5.15;1.60;;;;;;;27.85;36.40;102096.59;4977479;28;20048;-41
2022/07/02 05:52:45;;;;;;;4.40;1.25;;;;;;;28.59;34.63;102096.75;4977744;28;20031;-40
2022/07/02 05:55:11;;;;;;;6.22;1.38;;;;;;;28.50;35.43;102091.25;4977667;28;20034;-41
2022/07/02 05:57:36;;;;;;;4.60;1.15;;;;;;;29.61;33.73;102091.34;4977399;28;20105;-42
2022/07/02 06:00:03;;;;;;;5.55;1.80;;;;;;;29.33;32.93;102097.50;4977306;28;20050;-41
2022/07/02 06:02:29;;;;;;;5.65;1.48;;;;;;;29.47;32.83;102090.44;4977705;28;20037;-42
2022/07/02 06:04:54;;;;;;;5.35;1.27;;;;;;;29.28;32.89;102092.22;4976252;28;20109;-42
2022/07/02 06:10:04;;;;;;;6.05;1.35;;;;;;;28.48;33.92;102090.72;4977169;28;20037;-41
2022/07/02 06:12:30;;;;;;;3.33;1.42;;;;;;;28.26;34.73;102093.75;4977397;28;20358;-43
2022/07/02 06:14:55;;;;;;;6.32;1.40;;;;;;;29.75;32.79;102095.97;4976657;28;20078;-42
2022/07/02 06:17:20;;;;;;;5.00;1.55;;;;;;;29.26;32.14;102089.81;4977367;28;20031;-42
2022/07/02 06:19:48;;;;;;;6.72;1.60;;;;;;;28.79;33.42;102084.09;4976928;28;20122;-42
2022/07/02 06:22:13;;;;;;;7.22;1.48;;;;;;;28.91;33.42;102091.72;4977194;28;20055;-42
2022/07/02 06:24:39;;;;;;;4.72;1.40;;;;;;;28.70;33.57;102087.66;4977313;28;20458;-42
2022/07/02 06:27:05;;;;;;;5.07;1.70;;;;;;;29.40;33.55;102092.63;4976731;28;20031;-43
2022/07/02 06:29:30;;;;;;;5.45;1.33;;;;;;;28.97;33.93;102092.47;4976987;28;20037;-42
2022/07/02 06:31:55;;;;;;;4.10;1.40;;;;;;;29.85;32.38;102109.97;4976271;28;20029;-42
2022/07/02 06:34:21;;;;;;;5.68;1.42;;;;;;;27.73;34.34;102104.84;4975817;28;20045;-43
2022/07/02 06:36:46;;;;;;;5.57;1.50;;;;;;;28.18;33.86;102111.06;4976986;28;20046;-43
2022/07/02 06:39:11;;;;;;;6.80;1.60;;;;;;;28.10;34.88;102123.06;4976794;28;20035;-42
2022/07/02 06:44:21;;;;;;;5.60;1.63;;;;;;;24.61;40.93;102122.16;4976412;28;20121;-42
2022/07/02 06:46:46;;;;;;;4.25;1.40;;;;;;;23.06;45.07;102130.00;4976989;28;20086;-41
2022/07/02 06:49:11;;;;;;;4.03;1.40;;;;;;;20.99;49.04;102126.84;4976419;28;20105;-42
2022/07/02 06:51:36;;;;;;;6.05;1.40;;;;;;;21.22;48.68;102133.97;4976661;28;20027;-42
2022/07/02 06:54:02;;;;;;;6.53;1.35;;;;;;;21.49;48.57;102129.97;4976118;28;20350;-41
2022/07/02 06:56:36;;;;;;;7.20;1.50;;;;;;;22.06;46.38;102129.38;4974879;28;20157;-41
2022/07/02 06:59:05;;;;;;;6.32;1.50;;;;;;;21.76;47.33;102134.78;4976351;28;20398;-42
2022/07/02 07:01:30;;;;;;;4.00;1.20;;;;;;;21.74;46.77;102135.00;4976165;28;20031;-42
2022/07/02 07:03:55;;;;;;;3.42;1.20;;;;;;;21.73;47.38;102133.41;4976343;28;20022;-43
2022/07/02 07:06:24;;;;;;;4.60;1.20;;;;;;;22.18;46.00;102137.28;4976331;28;20102;-43
2022/07/02 07:08:53;;;;;;;5.85;1.20;;;;;;;22.31;45.57;102129.13;4975973;28;20027;-41
2022/07/02 07:11:22;;;;;;;5.28;1.25;;;;;;;22.70;45.00;102127.53;4974717;28;20035;-43
2022/07/02 07:13:48;;;;;;;3.55;1.08;;;;;;;22.66;43.71;102130.84;4975869;28;20053;-42
2022/07/02 07:16:14;;;;;;;2.88;1.13;;;;;;;22.25;44.04;102125.59;4976049;28;20544;-42
2022/07/02 07:18:39;;;;;;;3.63;1.00;;;;;;;21.81;44.68;102125.16;4976398;28;20030;-41
2022/07/02 07:21:05;;;;;;;2.35;0.80;;;;;;;22.82;44.09;102130.09;4975770;28;20061;-41
2022/07/02 07:23:31;;;;;;;4.38;0.90;;;;;;;21.48;43.57;102135.44;4975720;28;20039;-42
2022/07/02 07:25:56;;;;;;;2.60;0.70;;;;;;;21.77;42.52;102142.41;4975718;28;20019;-41
2022/07/02 07:28:26;;;;;;;2.55;1.00;;;;;;;22.22;42.66;102133.16;4975821;28;20022;-42
2022/07/02 07:30:52;;;;;;;4.85;1.05;;;;;;;22.09;43.11;102119.16;4975804;28;20516;-42
2022/07/02 07:33:17;;;;;;;2.33;0.75;;;;;;;22.24;43.07;102121.38;4975546;28;20023;-41
2022/07/02 07:35:42;;;;;;;1.67;0.73;;;;;;;22.63;41.97;102128.69;4975744;28;20031;-42
2022/07/02 07:38:08;;;;;;;3.22;0.90;;;;;;;22.18;41.49;102130.19;4975941;28;20153;-42
2022/07/02 07:40:33;;;;;;;3.47;0.82;;;;;;;21.80;42.74;102120.13;4974085;28;20110;-42
2022/07/02 07:42:58;;;;;;;1.45;0.50;;;;;;;22.75;40.79;102118.91;4975952;28;20027;-43
2022/07/02 07:45:24;;;;;;;1.88;0.55;;;;;;;22.88;41.05;102123.09;4975289;28;20014;-41
2022/07/02 07:47:49;;;;;;;1.45;0.50;;;;;;;23.49;38.79;102124.13;4958032;28;20157;-43
2022/07/02 07:50:14;;;;;;;6.00;0.80;;;;;;;24.12;38.35;102129.25;4975505;28;20027;-42
2022/07/02 07:52:40;;;;;;;3.33;0.70;;;;;;;23.54;39.23;102142.66;4975425;28;20019;-42
2022/07/02 07:55:05;;;;;;;4.97;0.70;;;;;;;24.09;38.94;102126.03;4975097;28;20022;-41
2022/07/02 07:57:31;;;;;;;1.52;0.68;;;;;;;23.91;37.75;102123.69;4975336;28;20037;-41
2022/07/02 07:59:57;;;;;;;2.33;0.95;;;;;;;24.23;37.80;102120.41;4973546;28;20437;-42
2022/07/02 08:02:22;;;;;;;3.17;0.55;;;;;;;23.82;38.06;102127.78;4973234;28;20537;-41
2022/07/02 08:04:47;;;;;;;1.60;0.80;;;;;;;23.91;37.79;102126.34;4974112;28;20466;-45
2022/07/02 08:07:13;;;;;;;2.20;0.73;;;;;;;23.36;38.80;102129.69;4974448;28;20038;-40
2022/07/02 08:09:38;;;;;;;1.77;0.57;;;;;;;23.42;39.07;102121.66;4974380;28;20031;-43
2022/07/02 08:12:05;;;;;;;2.80;0.73;;;;;;;23.26;38.56;102117.16;4975217;28;20038;-42
2022/07/02 08:14:30;;;;;;;1.77;0.52;;;;;;;22.95;39.17;102116.66;4975253;28;20466;-40
2022/07/02 08:16:55;;;;;;;1.90;0.80;;;;;;;22.85;38.64;102116.47;4975005;28;20080;-44
2022/07/02 08:19:21;;;;;;;1.52;0.50;;;;;;;22.89;38.08;102122.84;4975195;28;20378;-43
2022/07/02 08:21:46;;;;;;;3.03;0.70;;;;;;;23.51;38.03;102111.50;4974679;28;20038;-41
2022/07/02 08:24:12;;;;;;;3.88;0.60;;;;;;;23.39;38.68;102114.22;4973364;28;20045;-41
2022/07/02 08:26:37;;;;;;;1.15;0.50;;;;;;;23.80;37.60;102112.19;4973470;28;20515;-40
2022/07/02 08:29:02;;;;;;;1.75;0.60;;;;;;;23.72;38.18;102114.44;4973508;28;20042;-41
2022/07/02 08:31:28;;;;;;;1.48;0.52;;;;;;;23.49;37.99;102110.13;4975127;28;20110;-41
2022/07/02 08:33:53;;;;;;;3.40;0.90;;;;;;;23.81;38.50;102102.44;4973697;28;20036;-41
2022/07/02 08:36:18;;;;;;;3.45;0.68;;;;;;;23.73;37.18;102106.28;4974648;28;20116;-44
2022/07/02 08:38:44;;;;;;;2.13;0.50;;;;;;;23.73;37.90;102108.13;4975056;28;20444;-41
2022/07/02 08:41:12;;;;;;;2.95;1.02;;;;;;;24.41;36.77;102100.78;4974981;28;20022;-43
2022/07/02 08:43:40;;;;;;;1.13;0.50;;;;;;;24.09;37.52;102096.19;4974059;28;20035;-41
2022/07/02 08:46:07;;;;;;;3.55;0.85;;;;;;;24.23;37.59;102094.78;4974411;28;20029;-42
2022/07/02 08:48:33;;;;;;;1.10;0.60;;;;;;;24.03;38.52;102095.34;4973189;28;20077;-40
2022/07/02 08:51:00;;;;;;;2.05;0.70;;;;;;;23.61;36.98;102092.38;4973413;28;20030;-41
2022/07/02 08:53:26;;;;;;;1.75;0.60;;;;;;;24.77;37.11;102094.84;4973273;28;20033;-40
2022/07/02 08:55:53;;;;;;;2.13;0.50;;;;;;;23.90;36.81;102095.69;4973865;28;20038;-41
2022/07/02 08:58:20;;;;;;;2.25;0.57;;;;;;;24.43;36.15;102088.97;4978717;28;20038;-41
2022/07/02 09:00:47;;;;;;;4.38;0.70;;;;;;;24.54;36.55;102095.94;4978905;28;20034;-41
2022/07/02 09:03:14;;;;;;;4.45;0.63;;;;;;;24.87;36.31;102094.13;4978429;28;20023;-42
2022/07/02 09:05:40;;;;;;;4.03;0.57;;;;;;;25.04;36.72;102085.28;4976808;28;20031;-41
2022/07/02 09:08:06;;;;;;;2.17;0.75;;;;;;;25.52;34.85;102080.84;4977165;28;20019;-42
2022/07/02 09:10:33;;;;;;;2.30;0.70;;;;;;;24.69;35.34;102084.72;4977149;28;20027;-41
2022/07/02 09:12:59;;;;;;;4.38;0.73;;;;;;;24.15;35.88;102089.94;4978228;28;20201;-41
2022/07/02 09:15:25;;;;;;;2.60;0.52;;;;;;;24.72;36.26;102086.88;4976904;28;20027;-42
2022/07/02 09:17:51;;;;;;;2.03;0.63;;;;;;;25.07;36.33;102063.63;4978413;28;20093;-40
2022/07/02 09:20:18;;;;;;;2.80;0.68;;;;;;;23.93;35.64;102075.91;4978172;28;20477;-41
2022/07/02 09:22:46;;;;;;;3.55;0.95;;;;;;;25.25;35.36;102075.69;4977885;28;20494;-44
2022/07/02 09:25:17;;;;;;;3.03;0.65;;;;;;;25.75;34.08;102069.06;4978114;28;20046;-42
2022/07/02 09:27:47;;;;;;;1.95;0.70;;;;;;;25.41;35.75;102080.03;4978141;28;20033;-42
2022/07/02 09:30:16;;;;;;;2.65;0.93;;;;;;;24.69;35.24;102074.16;4978126;28;20384;-41
2022/07/02 09:32:44;;;;;;;2.58;0.80;;;;;;;25.10;34.85;102074.47;4976690;28;20446;-42
2022/07/02 09:35:20;;;;;;;2.40;0.70;;;;;;;25.72;33.16;102074.88;4977856;28;20031;-40
2022/07/02 09:37:47;;;;;;;4.30;0.80;;;;;;;24.92;34.64;102069.59;4976604;28;20023;-42
2022/07/02 09:40:13;;;;;;;2.80;0.70;;;;;;;25.00;34.19;102071.75;4977799;28;20077;-41
2022/07/02 09:42:39;;;;;;;3.47;0.77;;;;;;;25.24;34.31;102071.44;4976624;28;20026;-41
2022/07/02 09:45:05;;;;;;;1.40;0.40;;;;;;;25.16;33.72;102072.69;4976915;28;20023;-42
2022/07/02 09:47:35;;;;;;;5.18;0.70;;;;;;;25.16;36.12;102067.41;4977824;28;20030;-43
2022/07/02 09:50:09;;;;;;;3.20;0.98;;;;;;;24.79;35.10;102060.22;4977454;28;20023;-42
2022/07/02 09:52:36;;;;;;;1.73;0.63;;;;;;;24.82;34.41;102072.13;4977671;28;20474;-44
2022/07/02 09:55:02;;;;;;;4.95;0.70;;;;;;;24.57;35.40;102062.13;4977294;28;20465;-41
2022/07/02 09:57:28;;;;;;;1.52;0.50;;;;;;;25.48;34.54;102058.63;4977480;28;20413;-42
2022/07/02 10:00:03;;;;;;;8.35;0.80;;;;;;;25.36;34.11;102061.47;4976028;28;20066;-42
2022/07/02 10:02:28;;;;;;;1.95;0.47;;;;;;;25.72;33.46;102067.75;4976063;28;20038;-42
2022/07/02 10:04:55;;;;;;;3.53;0.70;;;;;;;25.41;32.70;102056.22;4977171;28;20019;-41
2022/07/02 10:07:22;;;;;;;3.25;0.75;;;;;;;26.09;32.57;102062.34;4977061;28;20461;-42
2022/07/02 10:09:49;;;;;;;2.75;0.77;;;;;;;25.85;32.95;102055.91;4976122;28;20029;-40
2022/07/02 10:12:15;;;;;;;1.42;0.68;;;;;;;26.26;32.61;102053.41;4977669;28;20038;-41
2022/07/02 10:14:43;;;;;;;2.50;0.77;;;;;;;26.06;32.43;102046.19;4977028;28;20023;-42
2022/07/02 10:17:10;;;;;;;3.17;0.90;;;;;;;25.71;32.20;102052.91;4977087;28;20039;-49
2022/07/02 10:19:37;;;;;;;2.75;0.57;;;;;;;24.83;32.73;102068.44;4975998;28;20608;-35
2022/07/02 10:22:05;;;;;;;2.80;0.75;;;;;;;25.38;32.90;102044.28;4975471;28;20022;-35
2022/07/02 10:24:31;;;;;;;0.60;0.35;;;;;;;25.85;32.19;102040.03;4976960;28;20114;-36
2022/07/02 10:26:59;;;;;;;4.20;0.65;;;;;;;25.73;31.87;102045.53;4977538;28;20026;-35
2022/07/02 10:29:24;;;;;;;2.00;0.50;;;;;;;26.82;32.00;102052.72;4977441;28;20027;-36
2022/07/02 10:32:06;;;;;;;3.25;0.70;;;;;;;25.51;31.75;102048.31;4976853;28;20081;-35
2022/07/02 10:34:33;;;;;;;2.03;0.70;;;;;;;26.17;31.33;102057.63;4976560;28;20023;-36
2022/07/02 10:36:58;;;;;;;7.03;0.70;;;;;;;25.70;30.84;102043.38;4976468;28;20037;-37
2022/07/02 10:39:24;;;;;;;1.75;0.30;;;;;;;26.39;33.47;102044.16;4977024;28;20026;-36
2022/07/02 10:41:49;;;;;;;3.08;0.90;;;;;;;25.92;33.89;102037.13;4976373;28;20054;-36
2022/07/02 10:44:15;;;;;;;3.35;0.68;;;;;;;26.94;31.82;102038.09;4976494;28;20019;-37
2022/07/02 10:46:46;;;;;;;2.25;0.90;;;;;;;26.86;30.36;102037.84;4976939;28;20046;-35
2022/07/02 10:49:22;;;;;;;1.73;0.38;;;;;;;25.88;31.20;102026.28;4976308;28;20022;-37
2022/07/02 10:51:55;;;;;;;3.95;0.70;;;;;;;27.64;30.89;102040.09;4976761;28;20032;-35
2022/07/02 10:54:30;;;;;;;6.55;0.95;;;;;;;27.63;30.72;102030.53;4976065;28;20106;-35
2022/07/02 10:56:55;;;;;;;6.70;1.55;;;;;;;27.35;30.72;102024.00;4974662;28;20121;-37
2022/07/02 10:59:36;;;;;;;5.55;1.20;;;;;;;26.83;31.37;102023.25;4975329;28;20105;-38
2022/07/02 11:02:06;;;;;;;3.15;0.73;;;;;;;25.72;31.53;102016.66;4974921;28;20027;-36
2022/07/02 11:04:32;;;;;;;5.18;0.70;;;;;;;25.00;33.86;102016.22;4974819;28;20042;-36
2022/07/02 11:07:05;;;;;;;1.83;0.70;;;;;;;25.12;33.72;102024.78;4976123;28;20026;-36
2022/07/02 11:09:31;;;;;;;2.33;0.77;;;;;;;25.46;34.88;102026.31;4976212;28;20062;-36
2022/07/02 11:11:59;;;;;;;3.08;0.88;;;;;;;26.13;33.87;102022.13;4975787;28;20485;-36
2022/07/02 11:14:26;;;;;;;2.38;0.80;;;;;;;25.95;33.28;102013.59;4975500;28;20037;-35
2022/07/02 11:16:54;;;;;;;2.13;0.77;;;;;;;25.04;35.48;102017.31;4976021;28;20033;-36
2022/07/02 11:19:30;;;;;;;4.32;1.10;;;;;;;26.02;34.30;102024.72;4975224;28;20491;-35
2022/07/02 11:21:58;;;;;;;3.72;1.15;;;;;;;24.76;35.17;102019.22;4976283;28;20026;-40
2022/07/02 11:24:25;;;;;;;6.22;1.00;;;;;;;23.25;38.22;102025.91;4975777;28;20043;-36
2022/07/02 11:26:51;;;;;;;3.67;1.10;;;;;;;24.21;37.88;102019.47;4975583;28;20038;-35
2022/07/02 11:29:17;;;;;;;4.88;1.13;;;;;;;23.22;38.93;102018.50;4958679;28;20031;-36